ベロオリゾンテ の空港の天気 - METARとTAF

タンクレド・ネヴェス国際空港 ( SBCF / CNF ) - ブラジル ミナスジェライス州ベロオリゾンテ
飛行場実況気象(Metar)
観測時間07/17 06:00 BRT (07/17 09:00 UTC)
風向・風速南南東 1m/s
視程10km以上
天気現象
なし
気温13℃
湿度94%
気圧1025hPa
METARSBCF 170900Z 16002KT CAVOK 13/12 Q1025
過去の天気等 Google飛行場航空写真 Wunderground天気予報

過去48時間のMETAR

飛行場予報(TAF)
発表時間: 7/17 01:00 BRT (7/17 04:00 UTC)
予報対象時間: 17日3時 BRT ~ 18日3時 BRT
風向・風速南東 2m/s
視程10km以上
なし
17日8時 BRT ~ 17日10時 BRT に徐々に
風向・風速東 3m/s
17日12時 BRT から 確率 30% で
視程10km以上
全天の8割程度の雲 雲底高度 1070m
17日17時 BRT ~ 17日19時 BRT に徐々に
風向・風速東南東 2m/s
TAF SBCF 170400Z 1706/1806 13004KT CAVOK TN13/1708Z TX24/1718Z
BECMG 1711/1713 08006KT
PROB30 1715/1718 9999 BKN035
BECMG 1720/1722 12004KT RMK PDS